Time;durP1;ratioP1;P1;durP2;ratioP2;P2;SDS_P1;SDS_P2;PMS_P1;PMS_P2;Temp;Humidity;BMP_temperature;BMP_pressure;BME280_temperature;BME280_humidity;BME280_pressure;Samples;Min_cycle;Max_cycle;Signal;HPM_P1;HPM_P2
2023/12/25 00:01:52;;;;;;;12.80;10.90;;;;;;;1.84;100.00;96544.14;110405;1241;58868;-66
2023/12/25 00:04:22;;;;;;;18.80;13.80;;;;;;;1.83;100.00;96540.90;110477;1242;70038;-66
2023/12/25 00:06:52;;;;;;;15.70;11.70;;;;;;;1.84;100.00;96542.77;110488;1241;69832;-66
2023/12/25 00:09:23;;;;;;;23.30;17.40;;;;;;;1.83;100.00;96550.23;110472;1242;69862;-66
2023/12/25 00:11:53;;;;;;;17.00;12.10;;;;;;;1.83;100.00;96538.66;110443;1242;58950;-66
2023/12/25 00:14:23;;;;;;;18.50;13.50;;;;;;;1.83;100.00;96534.55;110467;1245;58865;-66
2023/12/25 00:16:53;;;;;;;23.00;16.50;;;;;;;1.82;100.00;96533.20;110450;1242;70697;-66
2023/12/25 00:19:23;;;;;;;18.10;14.50;;;;;;;1.82;100.00;96531.88;110452;1242;69221;-66
2023/12/25 00:21:53;;;;;;;17.10;13.50;;;;;;;1.80;100.00;96544.14;110377;1241;69241;-66
2023/12/25 00:24:23;;;;;;;16.30;12.80;;;;;;;1.81;100.00;96545.68;110384;1241;58884;-66
2023/12/25 00:26:52;;;;;;;14.30;10.80;;;;;;;1.83;100.00;96546.08;110430;1241;58921;-66
2023/12/25 00:29:23;;;;;;;14.60;10.50;;;;;;;1.87;100.00;96552.04;110422;1241;70615;-66
2023/12/25 00:31:52;;;;;;;;;;;;;;;1.90;100.00;96559.61;110486;1242;69172;-65
2023/12/25 00:34:22;;;;;;;13.80;9.70;;;;;;;1.93;100.00;96555.14;110240;1242;69059;-65
2023/12/25 00:36:52;;;;;;;10.80;8.90;;;;;;;1.97;100.00;96553.25;110262;1242;58895;-67
2023/12/25 00:39:23;;;;;;;12.60;9.10;;;;;;;2.00;100.00;96557.89;110377;1241;58871;-67
2023/12/25 00:41:53;;;;;;;12.20;8.90;;;;;;;2.02;100.00;96560.73;110451;1242;69807;-67
2023/12/25 00:44:22;;;;;;;12.10;9.30;;;;;;;2.05;100.00;96564.70;110273;1241;68591;-67
2023/12/25 00:46:52;;;;;;;10.90;9.00;;;;;;;2.07;100.00;96562.38;110535;1241;68362;-67
2023/12/25 00:49:24;;;;;;;10.40;8.40;;;;;;;2.09;100.00;96565.02;110265;1242;58930;-67
2023/12/25 00:51:54;;;;;;;12.20;8.20;;;;;;;2.11;100.00;96562.84;110278;1242;58904;-67
2023/12/25 00:54:27;;;;;;;9.40;7.40;;;;;;;2.14;100.00;96565.11;110536;1242;69718;-66
2023/12/25 00:56:57;;;;;;;11.20;8.20;;;;;;;2.15;100.00;96563.33;110445;1242;69362;-67
2023/12/25 00:59:28;;;;;;;10.70;8.00;;;;;;;2.17;100.00;96561.48;110255;1242;67712;-66
2023/12/25 01:01:59;;;;;;;10.30;7.60;;;;;;;2.18;100.00;96558.88;110537;1241;58896;-67
2023/12/25 01:04:29;;;;;;;9.10;7.10;;;;;;;2.21;100.00;96559.90;110508;1242;58930;-66
2023/12/25 01:07:00;;;;;;;9.90;7.40;;;;;;;2.21;100.00;96557.83;110410;1241;70439;-66
2023/12/25 01:09:30;;;;;;;10.30;8.50;;;;;;;2.20;100.00;96563.21;110479;1241;68301;-66
2023/12/25 01:12:01;;;;;;;12.40;9.70;;;;;;;2.15;100.00;96568.30;110514;1242;69556;-67
2023/12/25 01:14:31;;;;;;;12.20;8.80;;;;;;;2.11;100.00;96562.65;110539;1241;58911;-67
2023/12/25 01:17:02;;;;;;;8.80;7.70;;;;;;;2.07;100.00;96564.41;110458;1241;58941;-67
2023/12/25 01:19:33;;;;;;;11.30;8.00;;;;;;;2.06;100.00;96569.81;110567;1241;69978;-66
2023/12/25 01:22:04;;;;;;;9.30;7.40;;;;;;;2.08;100.00;96571.08;110473;1242;69300;-66
2023/12/25 01:24:35;;;;;;;8.10;7.10;;;;;;;2.09;100.00;96576.20;110494;1242;69321;-67
2023/12/25 01:27:06;;;;;;;10.70;8.60;;;;;;;2.10;100.00;96580.23;110412;1241;59385;-66
2023/12/25 01:29:39;;;;;;;8.60;7.20;;;;;;;2.11;100.00;96576.61;110411;1242;58931;-66
2023/12/25 01:32:10;;;;;;;7.70;6.60;;;;;;;2.12;100.00;96577.54;110369;1242;69550;-66
2023/12/25 01:34:41;;;;;;;7.70;6.30;;;;;;;2.15;100.00;96570.70;110392;1239;69113;-65
2023/12/25 01:37:11;;;;;;;9.20;5.90;;;;;;;2.18;100.00;96557.50;110523;1242;68315;-65
2023/12/25 01:39:42;;;;;;;7.30;5.90;;;;;;;2.21;100.00;96552.17;110454;1242;58889;-66
2023/12/25 01:42:14;;;;;;;10.90;7.00;;;;;;;2.24;100.00;96539.27;110441;1241;58870;-65
2023/12/25 01:44:46;;;;;;;10.00;7.80;;;;;;;2.25;100.00;96533.17;110462;1241;69802;-65
2023/12/25 01:47:22;;;;;;;12.90;9.20;;;;;;;2.23;100.00;96529.70;110491;1239;68447;-66
2023/12/25 01:49:52;;;;;;;11.70;8.10;;;;;;;2.19;100.00;96529.55;110233;1242;68136;-66
2023/12/25 01:52:25;;;;;;;11.10;7.70;;;;;;;2.18;100.00;96520.88;110294;1243;58947;-66
2023/12/25 01:54:58;;;;;;;11.20;7.60;;;;;;;2.17;100.00;96521.07;110571;1242;58868;-66
2023/12/25 01:57:33;;;;;;;17.30;12.00;;;;;;;2.16;100.00;96513.04;110533;1243;70438;-66
2023/12/25 02:00:06;;;;;;;13.50;10.40;;;;;;;2.15;100.00;96508.65;110195;1244;68341;-66
2023/12/25 02:02:42;;;;;;;12.20;8.60;;;;;;;2.14;100.00;96509.56;110169;1242;69619;-66
2023/12/25 02:05:17;;;;;;;10.30;7.60;;;;;;;2.13;100.00;96508.09;110190;1242;58939;-66
2023/12/25 02:07:51;;;;;;;16.70;11.90;;;;;;;2.12;100.00;96502.45;110254;1242;58844;-67
2023/12/25 02:10:28;;;;;;;11.50;9.50;;;;;;;2.10;100.00;96499.31;110214;1241;69622;-66
2023/12/25 02:13:05;;;;;;;11.00;8.60;;;;;;;2.10;100.00;96497.75;110455;1239;68488;-66
2023/12/25 02:15:39;;;;;;;11.80;9.30;;;;;;;2.10;100.00;96488.80;110485;1243;68489;-68
2023/12/25 02:18:10;;;;;;;11.50;9.40;;;;;;;2.10;100.00;96489.16;110532;1242;58914;-66
2023/12/25 02:20:41;;;;;;;18.90;12.80;;;;;;;2.09;100.00;96486.11;110205;1242;58980;-66
2023/12/25 02:23:16;;;;;;;13.80;10.30;;;;;;;2.07;100.00;96491.04;110379;1242;70608;-65
2023/12/25 02:25:53;;;;;;;13.60;11.40;;;;;;;2.06;100.00;96480.94;110394;1241;69405;-66
2023/12/25 02:28:26;;;;;;;14.40;9.90;;;;;;;2.06;100.00;96476.61;110350;1241;69300;-66
2023/12/25 02:31:01;;;;;;;17.40;11.30;;;;;;;2.06;100.00;96485.91;110396;1241;58893;-66
2023/12/25 02:33:34;;;;;;;15.70;11.10;;;;;;;2.05;100.00;96482.20;110484;1241;58859;-66
2023/12/25 02:36:06;;;;;;;15.20;10.80;;;;;;;2.06;100.00;96480.44;110306;1242;69014;-66
2023/12/25 02:38:43;;;;;;;12.40;9.30;;;;;;;2.06;100.00;96475.09;110399;1243;69175;-66
2023/12/25 02:41:20;;;;;;;14.80;10.50;;;;;;;2.08;100.00;96480.51;110320;1241;69079;-66
2023/12/25 02:43:51;;;;;;;14.80;10.00;;;;;;;2.09;100.00;96483.18;110239;1241;58946;-66
2023/12/25 02:46:22;;;;;;;12.30;9.10;;;;;;;2.10;100.00;96479.86;110449;1242;58890;-66
2023/12/25 02:48:54;;;;;;;13.20;9.60;;;;;;;2.13;100.00;96481.09;110430;1241;70629;-66
2023/12/25 02:51:28;;;;;;;12.80;8.70;;;;;;;2.14;100.00;96487.38;110215;1242;68701;-66
2023/12/25 02:54:00;;;;;;;12.20;8.90;;;;;;;2.15;100.00;96487.01;110230;1242;69402;-66
2023/12/25 02:56:34;;;;;;;10.70;8.80;;;;;;;2.16;100.00;96501.35;110426;1242;58905;-67
2023/12/25 02:59:04;;;;;;;11.00;8.50;;;;;;;2.18;100.00;96498.36;110357;1242;58798;-66
2023/12/25 03:01:36;;;;;;;12.40;8.80;;;;;;;2.21;100.00;96501.96;110376;1242;68888;-66
2023/12/25 03:04:08;;;;;;;12.40;9.80;;;;;;;2.26;100.00;96496.54;110493;1241;68459;-66
2023/12/25 03:06:42;;;;;;;12.10;8.80;;;;;;;2.29;100.00;96488.97;110277;1240;69243;-66
2023/12/25 03:09:16;;;;;;;23.80;13.70;;;;;;;2.30;100.00;96485.83;110422;1242;58937;-66
2023/12/25 03:11:51;;;;;;;17.10;11.60;;;;;;;2.30;100.00;96484.11;110236;1242;58868;-66
2023/12/25 03:14:22;;;;;;;15.10;10.90;;;;;;;2.26;100.00;96474.83;110472;1242;70600;-66
2023/12/25 03:16:55;;;;;;;23.60;14.90;;;;;;;2.20;100.00;96473.80;110328;1242;69258;-66
2023/12/25 03:19:27;;;;;;;21.10;15.60;;;;;;;2.16;100.00;96459.73;110312;1241;69311;-66
2023/12/25 03:21:58;;;;;;;14.60;11.70;;;;;;;2.15;100.00;96447.13;110301;1242;58989;-66
2023/12/25 03:24:30;;;;;;;18.30;11.60;;;;;;;2.13;100.00;96442.05;110343;1243;58870;-66
2023/12/25 03:27:04;;;;;;;17.20;11.90;;;;;;;2.17;100.00;96428.27;110237;1243;70577;-66
2023/12/25 03:29:35;;;;;;;17.60;14.50;;;;;;;2.19;100.00;96424.89;110190;1242;69069;-66
2023/12/25 03:32:09;;;;;;;18.50;12.40;;;;;;;2.21;100.00;96422.72;110353;1241;69300;-66
2023/12/25 03:34:50;;;;;;;15.20;10.90;;;;;;;2.22;100.00;96419.91;110302;1242;58905;-66
2023/12/25 03:37:23;;;;;;;15.80;10.90;;;;;;;2.23;100.00;96418.29;110356;1243;58946;-66
2023/12/25 03:39:54;;;;;;;15.10;10.40;;;;;;;2.25;100.00;96415.28;110366;1243;70511;-66
2023/12/25 03:42:28;;;;;;;13.60;9.60;;;;;;;2.28;100.00;96418.89;110487;1243;69419;-66
2023/12/25 03:45:01;;;;;;;15.10;11.40;;;;;;;2.32;100.00;96422.27;110419;1242;69257;-67
2023/12/25 03:47:34;;;;;;;12.70;9.40;;;;;;;2.38;100.00;96420.06;110453;1242;58920;-66
2023/12/25 03:50:08;;;;;;;11.70;9.20;;;;;;;2.42;100.00;96414.84;110537;1240;58895;-66
2023/12/25 03:52:39;;;;;;;10.90;8.90;;;;;;;2.45;100.00;96426.67;110324;1242;69796;-66
2023/12/25 03:55:11;;;;;;;12.50;9.00;;;;;;;2.49;100.00;96429.04;110294;1242;69122;-66
2023/12/25 03:57:43;;;;;;;9.40;7.60;;;;;;;2.53;100.00;96429.66;110280;1243;69118;-66
2023/12/25 04:00:16;;;;;;;14.10;8.20;;;;;;;2.57;100.00;96435.66;110228;1247;58909;-66
2023/12/25 04:02:51;;;;;;;9.30;6.40;;;;;;;2.60;100.00;96441.02;110431;1242;58875;-66
2023/12/25 04:05:27;;;;;;;8.60;6.40;;;;;;;2.59;100.00;96448.14;110430;1242;70429;-67
2023/12/25 04:08:00;;;;;;;10.10;6.80;;;;;;;2.60;100.00;96449.79;110473;1241;69078;-66
2023/12/25 04:10:31;;;;;;;7.60;5.40;;;;;;;2.64;100.00;96453.36;110280;1242;68506;-66
2023/12/25 04:13:05;;;;;;;9.00;7.10;;;;;;;2.69;100.00;96462.19;110485;1243;58931;-66
2023/12/25 04:15:38;;;;;;;8.90;5.80;;;;;;;2.75;100.00;96464.25;110478;1242;58800;-67
2023/12/25 04:18:11;;;;;;;7.40;5.50;;;;;;;2.80;100.00;96466.67;111188;1241;70156;-66
2023/12/25 04:20:43;;;;;;;8.40;5.90;;;;;;;2.86;100.00;96474.60;111245;1241;68309;-66
2023/12/25 04:23:14;;;;;;;9.60;7.60;;;;;;;2.91;100.00;96472.98;111288;1241;68296;-67
2023/12/25 04:25:46;;;;;;;9.30;7.40;;;;;;;2.97;100.00;96473.30;111133;1244;58853;-67
2023/12/25 04:28:17;;;;;;;7.10;5.90;;;;;;;3.02;100.00;96486.97;111295;1241;58836;-67
2023/12/25 04:30:47;;;;;;;;;;;;;;;3.06;100.00;96473.27;110298;1242;70609;-66
2023/12/25 04:33:18;;;;;;;7.20;5.50;;;;;;;3.12;100.00;96479.66;110178;1244;69618;-65
2023/12/25 04:35:49;;;;;;;13.30;9.10;;;;;;;3.16;100.00;96481.85;110200;1242;69156;-66
2023/12/25 04:38:20;;;;;;;10.80;7.90;;;;;;;3.16;100.00;96481.15;110236;1243;58936;-65
2023/12/25 04:40:53;;;;;;;10.70;8.30;;;;;;;3.14;100.00;96481.48;110242;1242;58922;-65
2023/12/25 04:43:24;;;;;;;9.00;7.50;;;;;;;3.09;100.00;96480.73;110225;1241;69761;-67
2023/12/25 04:45:55;;;;;;;10.30;7.30;;;;;;;3.04;100.00;96466.32;110547;1241;68759;-67
2023/12/25 04:48:25;;;;;;;13.50;10.30;;;;;;;3.06;100.00;96473.32;110243;1243;69304;-65
2023/12/25 04:50:57;;;;;;;13.90;10.20;;;;;;;3.09;100.00;96480.54;110534;1242;58866;-66
2023/12/25 04:53:29;;;;;;;12.30;9.60;;;;;;;3.09;100.00;96484.66;110538;1242;58879;-65
2023/12/25 04:55:59;;;;;;;13.60;10.50;;;;;;;3.11;100.00;96481.79;110218;1242;71008;-65
2023/12/25 04:58:29;;;;;;;12.70;9.40;;;;;;;3.12;100.00;96483.48;110226;1242;69130;-65
2023/12/25 05:00:59;;;;;;;10.70;9.50;;;;;;;3.10;100.00;96501.48;110183;1247;69660;-65
2023/12/25 05:03:28;;;;;;;13.80;9.40;;;;;;;3.08;100.00;96504.37;110186;1242;58889;-65
2023/12/25 05:06:00;;;;;;;11.60;7.90;;;;;;;3.08;100.00;96503.50;110137;1245;58839;-66
2023/12/25 05:08:32;;;;;;;13.20;8.50;;;;;;;3.14;100.00;96502.98;110261;1248;69712;-66
2023/12/25 05:11:03;;;;;;;15.30;11.00;;;;;;;3.16;100.00;96496.48;110274;1244;68636;-66
2023/12/25 05:13:33;;;;;;;17.60;12.00;;;;;;;3.11;100.00;96486.95;110272;1248;69099;-66
2023/12/25 05:16:03;;;;;;;19.20;12.70;;;;;;;3.04;100.00;96477.04;110406;1242;58931;-65
2023/12/25 05:18:32;;;;;;;22.20;15.00;;;;;;;2.95;100.00;96469.27;110376;1244;58851;-67
2023/12/25 05:21:02;;;;;;;22.90;15.60;;;;;;;2.87;100.00;96483.70;110474;1241;70956;-67
2023/12/25 05:23:32;;;;;;;;;;;;;;;2.85;100.00;96486.59;110547;1242;68353;-68
2023/12/25 05:26:02;;;;;;;17.50;11.80;;;;;;;2.84;100.00;96489.22;110460;1249;69189;-65
2023/12/25 05:28:32;;;;;;;16.00;10.90;;;;;;;2.84;100.00;96488.19;110564;1241;58920;-65
2023/12/25 05:31:02;;;;;;;17.00;11.30;;;;;;;2.85;100.00;96488.58;110551;1241;58854;-65
2023/12/25 05:33:32;;;;;;;15.70;11.20;;;;;;;2.86;100.00;96484.59;110511;1242;69872;-65
2023/12/25 05:36:02;;;;;;;16.60;11.50;;;;;;;2.85;100.00;96504.77;110564;1241;68396;-65
2023/12/25 05:38:33;;;;;;;16.60;11.10;;;;;;;2.86;100.00;96500.98;110523;1242;68643;-65
2023/12/25 05:41:03;;;;;;;13.60;9.90;;;;;;;2.86;100.00;96491.80;110535;1242;58915;-65
2023/12/25 05:43:34;;;;;;;16.00;10.30;;;;;;;2.87;100.00;96522.77;110487;1242;58867;-65
2023/12/25 05:46:04;;;;;;;16.70;12.00;;;;;;;2.88;100.00;96505.99;110559;1241;70625;-67
2023/12/25 05:48:35;;;;;;;17.60;11.60;;;;;;;2.88;100.00;96499.51;110453;1242;69349;-65
2023/12/25 05:51:06;;;;;;;15.80;11.20;;;;;;;2.81;100.00;96515.70;110337;1242;69329;-66
2023/12/25 05:53:35;;;;;;;16.30;10.80;;;;;;;2.74;100.00;96519.32;110507;1244;58928;-66
2023/12/25 05:56:06;;;;;;;15.60;10.70;;;;;;;2.72;100.00;96514.65;110423;1249;58886;-65
2023/12/25 05:58:36;;;;;;;20.60;12.80;;;;;;;2.67;100.00;96514.08;110561;1242;70823;-66
2023/12/25 06:01:08;;;;;;;24.40;14.20;;;;;;;2.63;100.00;96513.79;110597;1242;69206;-66
2023/12/25 06:03:38;;;;;;;27.00;18.00;;;;;;;2.60;100.00;96514.98;110397;1242;69706;-67
2023/12/25 06:06:08;;;;;;;19.50;13.60;;;;;;;2.48;100.00;96527.29;110482;1242;58883;-66
2023/12/25 06:08:39;;;;;;;19.30;14.90;;;;;;;2.43;100.00;96520.70;110452;1242;58871;-67
2023/12/25 06:11:08;;;;;;;31.00;18.90;;;;;;;2.40;100.00;96526.88;110557;1242;71141;-67
2023/12/25 06:13:38;;;;;;;25.00;17.00;;;;;;;2.40;100.00;96524.30;110567;1242;69083;-67
2023/12/25 06:16:08;;;;;;;89.30;19.40;;;;;;;2.38;100.00;96529.23;110491;1241;69817;-67
2023/12/25 06:18:38;;;;;;;20.30;13.50;;;;;;;2.34;100.00;96529.44;110509;1249;58855;-67
2023/12/25 06:21:08;;;;;;;66.00;18.90;;;;;;;2.32;100.00;96530.06;110564;1242;58882;-65
2023/12/25 06:23:37;;;;;;;21.80;14.90;;;;;;;2.36;100.00;96536.04;110365;1242;70613;-66
2023/12/25 06:26:07;;;;;;;20.90;13.60;;;;;;;2.39;100.00;96539.36;110563;1242;69240;-66
2023/12/25 06:28:36;;;;;;;19.40;13.60;;;;;;;2.43;100.00;96542.23;110481;1241;69890;-66
2023/12/25 06:31:07;;;;;;;21.70;12.80;;;;;;;2.47;100.00;96551.46;110401;1244;58944;-67
2023/12/25 06:33:37;;;;;;;30.30;16.10;;;;;;;2.50;100.00;96558.17;110588;1241;58855;-67
2023/12/25 06:36:06;;;;;;;30.10;17.70;;;;;;;2.52;100.00;96561.44;110501;1242;71162;-66
2023/12/25 06:38:35;;;;;;;22.50;15.70;;;;;;;2.57;100.00;96556.59;110417;1244;69769;-66
2023/12/25 06:41:05;;;;;;;23.20;15.10;;;;;;;2.61;100.00;96558.42;110365;1242;68121;-66
2023/12/25 06:43:34;;;;;;;20.80;13.00;;;;;;;2.64;100.00;96565.52;110191;1242;58862;-67
2023/12/25 06:46:04;;;;;;;21.60;13.90;;;;;;;2.67;100.00;96570.64;110237;1241;58937;-66
2023/12/25 06:48:33;;;;;;;17.60;11.70;;;;;;;2.72;100.00;96575.04;110297;1242;70779;-69
2023/12/25 06:51:03;;;;;;;16.70;11.20;;;;;;;2.76;100.00;96580.13;110487;1241;70257;-67
2023/12/25 06:53:32;;;;;;;18.50;12.10;;;;;;;2.79;100.00;96580.13;110370;1242;69865;-67
2023/12/25 06:56:01;;;;;;;13.70;11.10;;;;;;;2.91;100.00;96578.61;110366;1242;58890;-67
2023/12/25 06:58:31;;;;;;;20.60;14.30;;;;;;;3.00;100.00;96580.39;110588;1241;58890;-67
2023/12/25 07:01:06;;;;;;;17.80;12.60;;;;;;;3.04;100.00;96576.00;110533;1243;70079;-66
2023/12/25 07:03:35;;;;;;;22.90;14.60;;;;;;;3.08;100.00;96569.58;110512;1241;68996;-67
2023/12/25 07:06:08;;;;;;;39.40;27.60;;;;;;;3.13;100.00;96568.97;110493;1244;69169;-66
2023/12/25 07:08:37;;;;;;;42.20;27.10;;;;;;;3.17;100.00;96560.46;110504;1242;58870;-67
2023/12/25 07:11:07;;;;;;;32.40;23.10;;;;;;;3.24;100.00;96562.34;110653;1242;58871;-67
2023/12/25 07:13:37;;;;;;;32.30;23.60;;;;;;;3.27;100.00;96565.42;110591;1241;69161;-67
2023/12/25 07:16:06;;;;;;;26.50;21.10;;;;;;;3.27;100.00;96561.60;110467;1241;68790;-67
2023/12/25 07:18:36;;;;;;;27.60;20.70;;;;;;;3.27;100.00;96561.27;110501;1242;69284;-67
2023/12/25 07:21:05;;;;;;;26.90;18.50;;;;;;;3.29;100.00;96561.67;110384;1243;58873;-68
2023/12/25 07:23:35;;;;;;;26.50;19.50;;;;;;;3.31;100.00;96565.17;110491;1243;58955;-66
2023/12/25 07:26:05;;;;;;;22.70;18.10;;;;;;;3.34;100.00;96566.79;110530;1241;71158;-66
2023/12/25 07:28:34;;;;;;;;;;;;;;;3.37;100.00;96567.41;110462;1240;69383;-66
2023/12/25 07:31:03;;;;;;;18.60;14.00;;;;;;;3.46;100.00;96571.40;110349;1241;69961;-65
2023/12/25 07:33:34;;;;;;;24.30;16.80;;;;;;;3.47;100.00;96566.14;110375;1241;58946;-66
2023/12/25 07:36:05;;;;;;;17.60;12.50;;;;;;;3.49;100.00;96562.92;110402;1241;58944;-67
2023/12/25 07:38:37;;;;;;;17.80;11.80;;;;;;;3.56;100.00;96564.95;110359;1243;71138;-66
2023/12/25 07:41:09;;;;;;;19.30;15.70;;;;;;;3.67;100.00;96560.38;110370;1242;69097;-67
2023/12/25 07:43:38;;;;;;;21.30;15.90;;;;;;;3.75;100.00;96566.26;110382;1242;69864;-66
2023/12/25 07:46:09;;;;;;;23.40;17.50;;;;;;;3.79;100.00;96565.17;110474;1241;58888;-67
2023/12/25 07:48:37;;;;;;;25.10;18.40;;;;;;;3.83;100.00;96568.14;110362;1241;58884;-68
2023/12/25 07:51:07;;;;;;;21.10;16.90;;;;;;;3.85;100.00;96570.83;110511;1240;70975;-67
2023/12/25 07:53:36;;;;;;;19.40;15.70;;;;;;;3.88;100.00;96577.22;110426;1242;69787;-67
2023/12/25 07:56:05;;;;;;;20.30;14.80;;;;;;;3.94;100.00;96578.94;110521;1241;69257;-67
2023/12/25 07:58:35;;;;;;;18.90;14.10;;;;;;;3.98;100.00;96588.98;110330;1241;58860;-67
2023/12/25 08:01:04;;;;;;;15.20;11.80;;;;;;;4.04;100.00;96594.83;110492;1241;58818;-67
2023/12/25 08:03:33;;;;;;;13.60;11.30;;;;;;;4.09;100.00;96597.52;110446;1249;71621;-67
2023/12/25 08:06:03;;;;;;;17.50;14.20;;;;;;;4.13;100.00;96598.30;110461;1240;69402;-67
2023/12/25 08:08:31;;;;;;;14.00;12.00;;;;;;;4.14;100.00;96603.94;110435;1242;69826;-66
2023/12/25 08:11:01;;;;;;;15.70;11.90;;;;;;;4.16;100.00;96607.77;110442;1240;58903;-68
2023/12/25 08:13:29;;;;;;;15.20;10.90;;;;;;;4.19;100.00;96606.38;110519;1242;58927;-68
2023/12/25 08:15:58;;;;;;;17.50;13.00;;;;;;;4.20;100.00;96611.86;110328;1240;71149;-67
2023/12/25 08:18:28;;;;;;;19.70;15.10;;;;;;;4.22;100.00;96615.68;110212;1242;69806;-67
2023/12/25 08:20:57;;;;;;;22.70;17.60;;;;;;;4.22;100.00;96617.61;110344;1249;69414;-67
2023/12/25 08:23:26;;;;;;;20.90;16.00;;;;;;;4.23;100.00;96623.02;110416;1243;58885;-67
2023/12/25 08:25:55;;;;;;;17.70;14.50;;;;;;;4.29;100.00;96621.17;110513;1248;58930;-67
2023/12/25 08:28:25;;;;;;;16.80;13.30;;;;;;;4.33;100.00;96623.47;110422;1242;71159;-67
2023/12/25 08:30:54;;;;;;;18.40;13.70;;;;;;;4.36;100.00;96625.39;110513;1241;69537;-67
2023/12/25 08:33:23;;;;;;;15.20;13.20;;;;;;;4.40;100.00;96624.78;110547;1241;69867;-66
2023/12/25 08:35:53;;;;;;;16.30;12.90;;;;;;;4.43;100.00;96625.48;110563;1242;58937;-66
2023/12/25 08:38:22;;;;;;;22.50;18.40;;;;;;;4.45;100.00;96625.34;110544;1241;58876;-67
2023/12/25 08:40:51;;;;;;;19.90;15.50;;;;;;;4.50;100.00;96628.51;110395;1242;70191;-66
2023/12/25 08:43:20;;;;;;;22.80;16.90;;;;;;;4.52;100.00;96629.55;110451;1240;68412;-67
2023/12/25 08:45:49;;;;;;;17.70;13.80;;;;;;;4.55;100.00;96625.10;110332;1241;69743;-67
2023/12/25 08:48:19;;;;;;;18.70;14.10;;;;;;;4.59;100.00;96628.64;110340;1242;58959;-68
2023/12/25 08:50:50;;;;;;;23.60;17.70;;;;;;;4.66;100.00;96633.41;110398;1242;58831;-68
2023/12/25 08:53:20;;;;;;;17.10;14.00;;;;;;;4.73;100.00;96629.67;110544;1241;69592;-68
2023/12/25 08:55:50;;;;;;;15.70;13.50;;;;;;;4.79;100.00;96629.45;110378;1242;68515;-66
2023/12/25 08:58:19;;;;;;;20.30;16.10;;;;;;;4.83;100.00;96630.77;110422;1241;69153;-69
2023/12/25 09:00:48;;;;;;;20.80;17.90;;;;;;;4.84;100.00;96634.33;110729;1241;58954;-67
2023/12/25 09:03:17;;;;;;;20.00;16.10;;;;;;;4.89;100.00;96640.97;110430;1241;58872;-67
2023/12/25 09:05:46;;;;;;;20.00;16.30;;;;;;;4.94;100.00;96645.66;110396;1241;70216;-67
2023/12/25 09:08:17;;;;;;;19.30;15.60;;;;;;;4.99;100.00;96647.02;110442;1241;69253;-67
2023/12/25 09:10:46;;;;;;;17.00;14.90;;;;;;;5.05;100.00;96643.74;110431;1241;69854;-67
2023/12/25 09:13:14;;;;;;;17.40;14.90;;;;;;;5.12;100.00;96644.67;110433;1241;58883;-68
2023/12/25 09:15:44;;;;;;;17.00;15.20;;;;;;;5.20;100.00;96645.23;110578;1241;58868;-69
2023/12/25 09:18:13;;;;;;;20.00;15.40;;;;;;;5.31;100.00;96638.42;110454;1241;70427;-67
2023/12/25 09:20:42;;;;;;;18.60;15.10;;;;;;;5.41;100.00;96632.80;110422;1241;69860;-67
2023/12/25 09:23:11;;;;;;;19.90;17.10;;;;;;;5.50;100.00;96616.67;110370;1241;69843;-68
2023/12/25 09:25:40;;;;;;;18.90;15.80;;;;;;;5.57;100.00;96614.48;110460;1241;58886;-68
2023/12/25 09:28:09;;;;;;;15.80;13.40;;;;;;;5.69;100.00;96608.34;110561;1242;58869;-68
2023/12/25 09:30:39;;;;;;;15.50;13.90;;;;;;;5.82;100.00;96606.11;110412;1242;69820;-66
2023/12/25 09:33:08;;;;;;;15.30;13.50;;;;;;;5.95;100.00;96603.16;110502;1241;69866;-68
2023/12/25 09:35:37;;;;;;;13.50;12.10;;;;;;;6.07;100.00;96604.80;110573;1241;69320;-67
2023/12/25 09:38:06;;;;;;;16.10;13.20;;;;;;;6.21;100.00;96609.27;110442;1242;59001;-67
2023/12/25 09:40:35;;;;;;;16.60;13.90;;;;;;;6.35;100.00;96614.98;110427;1241;58877;-68
2023/12/25 09:43:04;;;;;;;13.40;11.60;;;;;;;6.48;100.00;96608.02;110551;1241;70644;-67
2023/12/25 09:45:36;;;;;;;13.50;10.00;;;;;;;6.59;100.00;96605.02;110492;1240;69671;-68
2023/12/25 09:48:08;;;;;;;15.00;10.80;;;;;;;6.66;100.00;96608.39;110588;1241;69284;-67
2023/12/25 09:50:39;;;;;;;11.70;9.50;;;;;;;6.73;100.00;96610.68;110409;1241;59219;-67
2023/12/25 09:53:12;;;;;;;10.50;9.10;;;;;;;6.76;100.00;96609.43;110451;1241;58963;-65
2023/12/25 09:55:42;;;;;;;10.60;9.00;;;;;;;6.79;100.00;96609.02;110413;1242;70992;-67
2023/12/25 09:58:14;;;;;;;9.40;8.30;;;;;;;6.80;100.00;96602.92;110360;1241;69070;-67
2023/12/25 10:00:43;;;;;;;10.30;8.40;;;;;;;6.81;100.00;96610.27;110312;1243;69855;-67
2023/12/25 10:03:12;;;;;;;9.10;7.70;;;;;;;6.83;100.00;96614.45;110309;1242;58934;-67
2023/12/25 10:05:41;;;;;;;8.70;7.80;;;;;;;6.84;100.00;96616.27;110303;1241;58855;-67
2023/12/25 10:08:10;;;;;;;9.00;7.30;;;;;;;6.85;100.00;96617.92;110354;1241;70632;-67
2023/12/25 10:10:39;;;;;;;10.70;7.20;;;;;;;6.87;100.00;96619.33;110433;1242;69809;-67
2023/12/25 10:13:11;;;;;;;10.50;7.80;;;;;;;6.93;100.00;96619.96;110384;1240;69890;-66
2023/12/25 10:15:40;;;;;;;11.60;9.30;;;;;;;7.02;100.00;96624.89;110390;1241;58950;-68
2023/12/25 10:18:10;;;;;;;18.80;15.40;;;;;;;7.08;100.00;96622.88;110430;1241;58886;-67
2023/12/25 10:20:40;;;;;;;17.10;10.40;;;;;;;7.12;100.00;96622.61;110441;1241;70402;-67
2023/12/25 10:23:12;;;;;;;12.90;9.90;;;;;;;7.14;100.00;96625.23;110461;1241;69040;-67
2023/12/25 10:25:50;;;;;;;13.00;9.20;;;;;;;7.20;100.00;96623.99;110350;1244;68446;-67
2023/12/25 10:28:25;;;;;;;13.90;11.80;;;;;;;7.29;100.00;96622.95;110356;1241;58937;-67
2023/12/25 10:31:04;;;;;;;12.20;10.70;;;;;;;7.33;100.00;96627.88;110341;1241;58939;-67
2023/12/25 10:33:35;;;;;;;18.70;14.40;;;;;;;7.43;100.00;96625.90;110295;1241;70525;-67
2023/12/25 10:36:07;;;;;;;21.30;15.80;;;;;;;7.47;100.00;96622.86;110335;1241;69014;-67
2023/12/25 10:38:42;;;;;;;20.00;14.50;;;;;;;7.55;100.00;96622.80;110306;1241;69202;-66
2023/12/25 10:41:24;;;;;;;18.60;13.60;;;;;;;7.67;100.00;96619.65;110295;1241;58885;-66
2023/12/25 10:43:56;;;;;;;17.50;13.90;;;;;;;7.77;100.00;96619.23;110310;1242;58884;-67
2023/12/25 10:46:26;;;;;;;14.50;11.10;;;;;;;7.89;100.00;96624.98;110333;1242;70548;-66
2023/12/25 10:48:55;;;;;;;14.90;11.40;;;;;;;8.02;100.00;96623.27;110337;1242;69819;-66
2023/12/25 10:51:36;;;;;;;13.30;10.80;;;;;;;8.19;100.00;96626.73;110336;1241;68549;-66
2023/12/25 10:54:06;;;;;;;12.00;10.00;;;;;;;8.37;100.00;96635.42;110302;1241;58894;-68
2023/12/25 10:56:39;;;;;;;12.80;10.30;;;;;;;8.54;100.00;96639.03;110345;1240;58824;-68
2023/12/25 10:59:17;;;;;;;12.20;9.00;;;;;;;8.75;100.00;96639.14;110333;1241;71156;-68
2023/12/25 11:01:52;;;;;;;17.40;12.90;;;;;;;8.93;100.00;96630.45;110323;1241;68262;-67
2023/12/25 11:04:24;;;;;;;18.10;15.00;;;;;;;8.95;100.00;96628.20;109832;1241;628972;-67
2023/12/25 11:06:54;;;;;;;15.10;12.60;;;;;;;9.12;100.00;96623.20;110318;1241;58934;-67
2023/12/25 11:09:24;;;;;;;16.10;12.20;;;;;;;9.31;100.00;96619.95;110357;1241;58959;-68
2023/12/25 11:11:55;;;;;;;15.00;11.80;;;;;;;9.45;100.00;96616.52;110333;1241;70541;-68
2023/12/25 11:14:28;;;;;;;14.10;11.20;;;;;;;9.51;100.00;96615.21;110365;1241;69032;-68
2023/12/25 11:16:58;;;;;;;11.80;9.50;;;;;;;9.73;100.00;96617.39;110302;1240;69848;-68
2023/12/25 11:19:29;;;;;;;12.10;10.50;;;;;;;9.88;100.00;96616.88;110347;1241;58871;-67
2023/12/25 11:21:58;;;;;;;;;;;;;;;9.80;100.00;96611.20;110332;1241;58843;-66
2023/12/25 11:24:28;;;;;;;11.80;10.40;;;;;;;10.00;100.00;96611.83;110353;1241;69711;-68
2023/12/25 11:27:02;;;;;;;17.00;14.30;;;;;;;10.10;100.00;96612.45;110308;1241;69191;-67
2023/12/25 11:29:31;;;;;;;13.20;10.50;;;;;;;10.20;100.00;96614.57;110341;1241;68678;-68
2023/12/25 11:32:07;;;;;;;15.10;13.40;;;;;;;10.26;100.00;96619.28;110197;1240;58886;-67